Holesov, Czech Republic
Current Conditions -  °F | °C
As of 3:00 PM on Tuesday 21 Oct 2014 (Local Time) from LKKU Reporting Station
Scattered Clouds Scattered Clouds  
Wind Chill: 64°   Ceiling: Unl
Heat Index: 64°   Visibility: 6mi
Dew Point: 50°   Wind: 9mph
Humidity: 59%   Direction: 240°WSW
Pressure: 29.8"   Gusts: NA
Location:  49.34°N, 17.58°E
Report Text: LKKU 211300Z 24008KT 180V270 9999 SCT038 18/10 Q1009 RMK REG QNH 1003
Loading
Personal Weather Stations






























Interactive Weather Map New forecast layout! Learn more

10-Day Weather Forecast

Advertisements
Track Severe Weather on mobile